sensor_id;sensor_type;location;lat;lon;timestamp;temperature;humidity
46283;DHT22;32017;43.700;11.820;2023-04-24T17:07:52;16.60;99.90
46283;DHT22;32017;43.700;11.820;2023-04-24T18:04:02;15.30;99.90
46283;DHT22;32017;43.700;11.820;2023-04-24T18:06:22;14.00;99.90
46283;DHT22;32017;43.700;11.820;2023-04-24T18:08:42;13.90;99.90
46283;DHT22;32017;43.700;11.820;2023-04-24T19:47:23;13.80;99.90
46283;DHT22;32017;43.700;11.820;2023-04-24T19:49:43;11.80;99.90
46283;DHT22;32017;43.700;11.820;2023-04-24T19:52:04;11.70;99.90
46283;DHT22;32017;43.700;11.820;2023-04-24T19:54:23;11.70;99.90
46283;DHT22;32017;43.700;11.820;2023-04-24T19:56:43;11.40;99.90
46283;DHT22;32017;43.700;11.820;2023-04-24T19:59:03;11.30;99.90
46283;DHT22;32017;43.700;11.820;2023-04-24T20:17:44;11.30;99.90
46283;DHT22;32017;43.700;11.820;2023-04-24T20:20:05;11.00;99.90
46283;DHT22;32017;43.700;11.820;2023-04-24T20:22:24;11.00;99.90
46283;DHT22;32017;43.700;11.820;2023-04-24T20:24:44;11.10;99.90
46283;DHT22;32017;43.700;11.820;2023-04-24T20:27:04;11.10;99.90
46283;DHT22;32017;43.700;11.820;2023-04-24T20:29:24;11.10;99.90
46283;DHT22;32017;43.700;11.820;2023-04-24T20:31:44;11.10;99.90
46283;DHT22;32017;43.700;11.820;2023-04-24T20:34:04;10.90;99.90
46283;DHT22;32017;43.700;11.820;2023-04-24T20:36:25;10.90;99.90
46283;DHT22;32017;43.700;11.820;2023-04-24T20:38:45;10.80;99.90
46283;DHT22;32017;43.700;11.820;2023-04-24T20:41:06;10.70;99.90
46283;DHT22;32017;43.700;11.820;2023-04-24T20:43:27;10.50;99.90
46283;DHT22;32017;43.700;11.820;2023-04-24T20:45:48;10.60;99.90
46283;DHT22;32017;43.700;11.820;2023-04-24T20:48:09;10.40;99.90
46283;DHT22;32017;43.700;11.820;2023-04-24T20:50:29;10.40;99.90
46283;DHT22;32017;43.700;11.820;2023-04-24T20:52:51;10.40;99.90
46283;DHT22;32017;43.700;11.820;2023-04-24T20:55:11;10.40;99.90
46283;DHT22;32017;43.700;11.820;2023-04-24T20:57:31;10.50;99.90
46283;DHT22;32017;43.700;11.820;2023-04-24T20:59:51;10.50;99.90
46283;DHT22;32017;43.700;11.820;2023-04-24T21:02:11;10.40;99.90
46283;DHT22;32017;43.700;11.820;2023-04-24T21:04:31;10.40;99.90
46283;DHT22;32017;43.700;11.820;2023-04-24T21:06:53;10.30;99.90
46283;DHT22;32017;43.700;11.820;2023-04-24T21:09:13;10.30;99.90
46283;DHT22;32017;43.700;11.820;2023-04-24T21:11:34;10.30;99.90
46283;DHT22;32017;43.700;11.820;2023-04-24T21:13:54;10.40;99.90
46283;DHT22;32017;43.700;11.820;2023-04-24T21:16:13;10.30;99.90
46283;DHT22;32017;43.700;11.820;2023-04-24T21:18:34;10.30;99.90
46283;DHT22;32017;43.700;11.820;2023-04-24T21:20:54;10.40;99.90
46283;DHT22;32017;43.700;11.820;2023-04-24T21:23:15;10.30;99.90
46283;DHT22;32017;43.700;11.820;2023-04-24T21:25:35;10.30;99.90
46283;DHT22;32017;43.700;11.820;2023-04-24T21:27:58;10.20;99.90
46283;DHT22;32017;43.700;11.820;2023-04-24T21:30:18;10.20;99.90
46283;DHT22;32017;43.700;11.820;2023-04-24T21:32:39;10.20;99.90
46283;DHT22;32017;43.700;11.820;2023-04-24T21:35:00;10.10;99.90
46283;DHT22;32017;43.700;11.820;2023-04-24T21:37:19;10.00;99.90
46283;DHT22;32017;43.700;11.820;2023-04-24T21:39:39;10.00;99.90
46283;DHT22;32017;43.700;11.820;2023-04-24T21:41:59;9.90;99.90
46283;DHT22;32017;43.700;11.820;2023-04-24T21:44:19;9.90;99.90
46283;DHT22;32017;43.700;11.820;2023-04-24T21:46:39;9.90;99.90
46283;DHT22;32017;43.700;11.820;2023-04-24T21:49:01;9.90;99.90
46283;DHT22;32017;43.700;11.820;2023-04-24T21:51:21;9.80;99.90
46283;DHT22;32017;43.700;11.820;2023-04-24T21:53:40;9.70;99.90
46283;DHT22;32017;43.700;11.820;2023-04-24T21:56:00;9.60;99.90
46283;DHT22;32017;43.700;11.820;2023-04-24T21:58:20;9.50;99.90
46283;DHT22;32017;43.700;11.820;2023-04-24T22:00:40;9.60;99.90
46283;DHT22;32017;43.700;11.820;2023-04-24T22:03:00;9.70;99.90
46283;DHT22;32017;43.700;11.820;2023-04-24T22:05:20;9.50;99.90
46283;DHT22;32017;43.700;11.820;2023-04-24T22:07:40;9.30;99.90
46283;DHT22;32017;43.700;11.820;2023-04-24T22:10:01;9.30;99.90
46283;DHT22;32017;43.700;11.820;2023-04-24T22:12:20;9.20;99.90
46283;DHT22;32017;43.700;11.820;2023-04-24T22:14:40;9.00;99.90
46283;DHT22;32017;43.700;11.820;2023-04-24T22:17:00;9.00;99.90
46283;DHT22;32017;43.700;11.820;2023-04-24T22:19:21;9.00;99.90
46283;DHT22;32017;43.700;11.820;2023-04-24T22:21:41;9.00;99.90
46283;DHT22;32017;43.700;11.820;2023-04-24T22:24:02;9.10;99.90
46283;DHT22;32017;43.700;11.820;2023-04-24T22:26:21;9.20;99.90
46283;DHT22;32017;43.700;11.820;2023-04-24T22:28:41;9.20;99.90
46283;DHT22;32017;43.700;11.820;2023-04-24T22:31:00;9.20;99.90
46283;DHT22;32017;43.700;11.820;2023-04-24T22:33:20;9.20;99.90
46283;DHT22;32017;43.700;11.820;2023-04-24T22:35:40;9.10;99.90
46283;DHT22;32017;43.700;11.820;2023-04-24T22:38:00;8.90;99.90
46283;DHT22;32017;43.700;11.820;2023-04-24T22:40:19;8.90;99.90
46283;DHT22;32017;43.700;11.820;2023-04-24T22:42:40;8.90;99.90
46283;DHT22;32017;43.700;11.820;2023-04-24T22:45:00;9.00;99.90
46283;DHT22;32017;43.700;11.820;2023-04-24T22:47:19;9.10;99.90
46283;DHT22;32017;43.700;11.820;2023-04-24T22:49:39;9.00;99.90
46283;DHT22;32017;43.700;11.820;2023-04-24T22:52:00;8.90;99.90
46283;DHT22;32017;43.700;11.820;2023-04-24T22:54:23;8.90;99.90
46283;DHT22;32017;43.700;11.820;2023-04-24T22:56:42;8.90;99.90
46283;DHT22;32017;43.700;11.820;2023-04-24T22:59:02;8.90;99.90
46283;DHT22;32017;43.700;11.820;2023-04-24T23:01:23;8.80;99.90
46283;DHT22;32017;43.700;11.820;2023-04-24T23:03:45;8.70;99.90
46283;DHT22;32017;43.700;11.820;2023-04-24T23:06:06;8.70;99.90
46283;DHT22;32017;43.700;11.820;2023-04-24T23:08:25;8.70;99.90
46283;DHT22;32017;43.700;11.820;2023-04-24T23:10:46;8.50;99.90
46283;DHT22;32017;43.700;11.820;2023-04-24T23:13:05;8.50;99.90
46283;DHT22;32017;43.700;11.820;2023-04-24T23:15:25;8.70;99.90
46283;DHT22;32017;43.700;11.820;2023-04-24T23:17:45;8.60;99.90
46283;DHT22;32017;43.700;11.820;2023-04-24T23:20:05;8.40;99.90
46283;DHT22;32017;43.700;11.820;2023-04-24T23:22:26;8.40;99.90
46283;DHT22;32017;43.700;11.820;2023-04-24T23:24:46;8.40;99.90
46283;DHT22;32017;43.700;11.820;2023-04-24T23:27:06;8.20;99.90
46283;DHT22;32017;43.700;11.820;2023-04-24T23:29:25;8.20;99.90
46283;DHT22;32017;43.700;11.820;2023-04-24T23:31:45;8.20;99.90
46283;DHT22;32017;43.700;11.820;2023-04-24T23:34:04;8.30;99.90
46283;DHT22;32017;43.700;11.820;2023-04-24T23:36:24;8.30;99.90
46283;DHT22;32017;43.700;11.820;2023-04-24T23:38:44;8.40;99.90
46283;DHT22;32017;43.700;11.820;2023-04-24T23:41:09;8.40;99.90
46283;DHT22;32017;43.700;11.820;2023-04-24T23:43:29;8.40;99.90
46283;DHT22;32017;43.700;11.820;2023-04-24T23:45:48;8.20;99.90
46283;DHT22;32017;43.700;11.820;2023-04-24T23:48:09;8.20;99.90
46283;DHT22;32017;43.700;11.820;2023-04-24T23:50:28;8.20;99.90
46283;DHT22;32017;43.700;11.820;2023-04-24T23:52:48;8.10;99.90
46283;DHT22;32017;43.700;11.820;2023-04-24T23:55:08;8.10;99.90
46283;DHT22;32017;43.700;11.820;2023-04-24T23:57:28;8.10;99.90
46283;DHT22;32017;43.700;11.820;2023-04-24T23:59:47;8.30;99.90
